createdAt,value
2018-12-14T00:00:50.114Z,15.43
2018-12-14T00:03:24.851Z,14.43
2018-12-14T00:05:59.900Z,14.13
2018-12-14T00:08:34.624Z,15.97
2018-12-14T00:11:09.353Z,13.77
2018-12-14T00:13:44.067Z,15.27
2018-12-14T00:16:18.689Z,15.43
2018-12-14T00:18:53.846Z,15.50
2018-12-14T00:21:28.483Z,15.20
2018-12-14T00:24:03.385Z,14.73
2018-12-14T00:26:38.387Z,14.80
2018-12-14T00:29:13.351Z,14.67
2018-12-14T00:31:47.991Z,14.70
2018-12-14T00:34:22.746Z,14.50
2018-12-14T00:36:57.414Z,15.47
2018-12-14T00:39:32.181Z,14.73
2018-12-14T00:42:06.776Z,14.43
2018-12-14T00:44:41.434Z,14.33
2018-12-14T00:47:16.165Z,14.80
2018-12-14T00:49:50.964Z,15.43
2018-12-14T00:52:25.791Z,15.73
2018-12-14T00:55:00.433Z,14.77
2018-12-14T00:57:35.224Z,15.13
2018-12-14T01:00:11.069Z,14.83
2018-12-14T01:02:45.752Z,14.50
2018-12-14T01:05:20.553Z,14.17
2018-12-14T01:07:55.315Z,15.43
2018-12-14T01:10:29.987Z,16.60
2018-12-14T01:13:04.762Z,18.53
2018-12-14T01:15:39.430Z,14.37
2018-12-14T01:18:14.195Z,15.37
2018-12-14T01:20:48.823Z,14.73
2018-12-14T01:23:23.600Z,15.27
2018-12-14T01:25:58.265Z,15.50
2018-12-14T01:28:33.125Z,16.40
2018-12-14T01:31:07.820Z,16.47
2018-12-14T01:33:42.492Z,16.47
2018-12-14T01:36:17.161Z,14.73
2018-12-14T01:38:51.828Z,15.53
2018-12-14T01:41:26.483Z,14.70
2018-12-14T01:44:01.365Z,15.43
2018-12-14T01:46:36.080Z,15.33
2018-12-14T01:49:10.840Z,15.20
2018-12-14T01:51:45.415Z,15.37
2018-12-14T01:54:19.963Z,14.57
2018-12-14T01:56:54.660Z,15.20
2018-12-14T01:59:29.883Z,16.03
2018-12-14T02:02:04.651Z,16.73
2018-12-14T02:04:39.297Z,17.43
2018-12-14T02:07:14.147Z,15.97
2018-12-14T02:09:48.828Z,16.20
2018-12-14T02:12:23.486Z,16.37
2018-12-14T02:14:58.096Z,15.57
2018-12-14T02:17:32.680Z,16.70
2018-12-14T02:20:07.745Z,17.43
2018-12-14T02:22:42.202Z,16.93
2018-12-14T02:25:16.986Z,16.80
2018-12-14T02:27:51.559Z,16.67
2018-12-14T02:30:47.691Z,16.00
2018-12-14T02:33:22.375Z,15.50
2018-12-14T02:35:57.170Z,15.63
2018-12-14T02:38:32.448Z,17.07
2018-12-14T02:41:07.117Z,17.20
2018-12-14T02:43:42.584Z,15.67
2018-12-14T02:46:17.191Z,16.43
2018-12-14T02:48:52.003Z,15.13
2018-12-14T02:51:26.889Z,15.87
2018-12-14T02:54:02.145Z,16.40
2018-12-14T02:56:36.889Z,17.30
2018-12-14T02:59:11.612Z,17.70
2018-12-14T03:01:46.335Z,15.63
2018-12-14T03:04:21.056Z,16.80
2018-12-14T03:06:55.607Z,16.10
2018-12-14T03:09:30.428Z,17.30
2018-12-14T03:12:04.960Z,16.70
2018-12-14T03:14:40.379Z,15.83
2018-12-14T03:17:15.325Z,17.53
2018-12-14T03:19:50.546Z,17.47
2018-12-14T03:22:25.637Z,15.87
2018-12-14T03:25:00.315Z,16.43
2018-12-14T03:27:34.933Z,16.13
2018-12-14T03:30:09.898Z,15.90
2018-12-14T03:32:44.633Z,17.00
2018-12-14T03:35:19.305Z,16.10
2018-12-14T03:37:54.182Z,16.33
2018-12-14T03:40:29.503Z,15.73
2018-12-14T03:43:03.983Z,16.33
2018-12-14T03:45:38.749Z,16.80
2018-12-14T03:48:13.485Z,17.27
2018-12-14T03:50:47.994Z,16.53
2018-12-14T03:53:22.849Z,16.47
2018-12-14T03:55:57.548Z,17.90
2018-12-14T03:58:32.173Z,17.73
2018-12-14T04:01:06.815Z,16.57
2018-12-14T04:03:41.408Z,18.07
2018-12-14T04:06:16.062Z,16.43
2018-12-14T04:08:50.616Z,18.27
2018-12-14T04:11:25.316Z,17.50
2018-12-14T04:13:59.952Z,16.17
2018-12-14T04:16:34.683Z,16.77
2018-12-14T04:19:09.248Z,17.23
2018-12-14T04:21:44.091Z,18.27
2018-12-14T04:24:18.790Z,21.30
2018-12-14T04:26:53.701Z,17.83
2018-12-14T04:29:28.835Z,18.17
2018-12-14T04:32:03.390Z,21.50
2018-12-14T04:34:38.243Z,18.70
2018-12-14T04:37:12.957Z,17.47
2018-12-14T04:39:47.628Z,18.00
2018-12-14T04:42:22.512Z,18.77
2018-12-14T04:44:57.183Z,17.10
2018-12-14T04:47:31.836Z,17.87
2018-12-14T04:50:06.745Z,16.13
2018-12-14T04:52:41.249Z,17.47
2018-12-14T04:55:15.941Z,17.33
2018-12-14T04:57:50.616Z,16.40
2018-12-14T05:00:25.344Z,17.00
2018-12-14T05:02:59.936Z,18.83
2018-12-14T05:05:34.613Z,16.73
2018-12-14T05:08:09.099Z,16.63
2018-12-14T05:10:43.795Z,16.50
2018-12-14T05:13:18.372Z,16.33
2018-12-14T05:15:53.040Z,17.30
2018-12-14T05:18:27.714Z,17.00
2018-12-14T05:21:02.433Z,17.40
2018-12-14T05:23:37.032Z,17.20
2018-12-14T05:26:11.624Z,16.13
2018-12-14T05:28:46.499Z,16.90
2018-12-14T05:31:21.172Z,16.43
2018-12-14T05:33:55.791Z,17.10
2018-12-14T05:36:30.752Z,17.53
2018-12-14T05:39:06.635Z,17.37
2018-12-14T05:41:41.596Z,17.63
2018-12-14T05:44:16.118Z,16.40
2018-12-14T05:46:50.752Z,19.20
2018-12-14T05:49:25.487Z,17.43
2018-12-14T05:52:00.343Z,15.93
2018-12-14T05:54:35.079Z,18.20
2018-12-14T05:57:09.900Z,16.33
2018-12-14T05:59:44.551Z,17.37
2018-12-14T06:02:19.179Z,15.70
2018-12-14T06:04:53.893Z,16.53
2018-12-14T06:07:28.717Z,17.63
2018-12-14T06:10:03.576Z,17.10
2018-12-14T06:12:38.133Z,18.37
2018-12-14T06:15:12.728Z,17.37
2018-12-14T06:17:47.447Z,17.60
2018-12-14T06:20:21.972Z,17.77
2018-12-14T06:22:56.720Z,17.73
2018-12-14T06:25:31.714Z,17.63
2018-12-14T06:28:06.358Z,17.30
2018-12-14T06:30:41.120Z,19.07
2018-12-14T06:33:16.053Z,19.40
2018-12-14T06:35:51.028Z,17.83
2018-12-14T06:38:25.924Z,18.33
2018-12-14T06:41:00.557Z,18.10
2018-12-14T06:43:35.088Z,19.20
2018-12-14T06:46:09.680Z,18.47
2018-12-14T06:48:44.416Z,18.33
2018-12-14T06:51:19.260Z,17.60
2018-12-14T06:53:54.009Z,18.57
2018-12-14T06:56:28.520Z,16.67
2018-12-14T06:59:03.631Z,16.63
2018-12-14T07:01:38.281Z,16.30
2018-12-14T07:04:12.908Z,16.33
2018-12-14T07:06:47.524Z,16.63
2018-12-14T07:09:22.115Z,17.43
2018-12-14T07:11:56.920Z,16.43
2018-12-14T07:14:31.673Z,16.97
2018-12-14T07:17:06.256Z,17.50
2018-12-14T07:19:40.884Z,16.27
2018-12-14T07:22:15.515Z,16.50
2018-12-14T07:24:50.108Z,16.00
2018-12-14T07:27:24.680Z,16.10
2018-12-14T07:29:59.337Z,17.00
2018-12-14T07:32:34.307Z,16.83
2018-12-14T07:35:08.991Z,17.50
2018-12-14T07:37:43.628Z,16.70
2018-12-14T07:40:18.258Z,15.47
2018-12-14T07:42:53.052Z,15.60
2018-12-14T07:45:27.944Z,17.53
2018-12-14T07:48:02.688Z,17.20
2018-12-14T07:50:37.279Z,16.53
2018-12-14T07:53:11.860Z,16.67
2018-12-14T07:55:46.452Z,15.83
2018-12-14T07:58:21.076Z,16.93
2018-12-14T08:00:55.911Z,16.13
2018-12-14T08:03:30.696Z,18.77
2018-12-14T08:06:05.303Z,16.37
2018-12-14T08:08:39.979Z,16.70
2018-12-14T08:11:14.685Z,15.07
2018-12-14T08:13:49.449Z,16.10
2018-12-14T08:16:24.206Z,15.00
2018-12-14T08:18:59.511Z,16.90
2018-12-14T08:21:34.081Z,15.13
2018-12-14T08:24:08.712Z,15.00
2018-12-14T08:26:43.405Z,15.57
2018-12-14T08:29:18.144Z,15.13
2018-12-14T08:31:52.679Z,17.47
2018-12-14T08:34:27.284Z,16.83
2018-12-14T08:37:02.016Z,15.73
2018-12-14T08:39:36.885Z,15.23
2018-12-14T08:42:11.621Z,14.67
2018-12-14T08:44:46.812Z,16.57
2018-12-14T08:47:22.188Z,15.87
2018-12-14T08:49:56.726Z,16.20
2018-12-14T08:52:31.352Z,16.17
2018-12-14T08:55:06.360Z,17.43
2018-12-14T08:57:41.087Z,16.30
2018-12-14T09:00:15.824Z,16.43
2018-12-14T09:02:50.467Z,17.50
2018-12-14T09:05:25.116Z,16.63
2018-12-14T09:07:59.903Z,17.03
2018-12-14T09:10:34.627Z,17.17
2018-12-14T09:13:09.380Z,17.43
2018-12-14T09:15:43.888Z,16.93
2018-12-14T09:18:18.498Z,17.87
2018-12-14T09:20:53.263Z,17.97
2018-12-14T09:23:27.832Z,18.30
2018-12-14T09:26:02.650Z,16.73
2018-12-14T09:28:37.559Z,16.33
2018-12-14T09:31:12.365Z,16.60
2018-12-14T09:33:46.980Z,15.83
2018-12-14T09:36:21.561Z,17.50
2018-12-14T09:38:56.293Z,16.80
2018-12-14T09:41:30.951Z,16.40
2018-12-14T09:44:05.748Z,16.87
2018-12-14T09:46:40.529Z,15.07
2018-12-14T09:49:15.411Z,15.80
2018-12-14T09:51:50.098Z,15.63
2018-12-14T09:54:24.696Z,15.57
2018-12-14T09:56:59.300Z,15.80
2018-12-14T09:59:33.995Z,17.00
2018-12-14T10:02:08.975Z,16.87
2018-12-14T10:04:43.583Z,16.63
2018-12-14T10:07:18.143Z,15.13
2018-12-14T10:09:52.728Z,18.00
2018-12-14T10:12:27.347Z,17.67
2018-12-14T10:15:02.671Z,16.87
2018-12-14T10:17:37.599Z,22.13
2018-12-14T10:20:12.443Z,19.00
2018-12-14T10:22:46.967Z,22.70
2018-12-14T10:25:21.663Z,18.93
2018-12-14T10:27:56.478Z,18.97
2018-12-14T10:30:31.123Z,18.63
2018-12-14T10:33:05.857Z,16.63
2018-12-14T10:35:40.299Z,17.50
2018-12-14T10:38:15.013Z,17.83
2018-12-14T10:40:49.575Z,17.50
2018-12-14T10:43:24.177Z,16.57
2018-12-14T10:45:58.812Z,18.07
2018-12-14T10:48:33.528Z,17.97
2018-12-14T10:51:08.204Z,15.63
2018-12-14T10:53:42.749Z,17.67
2018-12-14T10:56:17.371Z,16.70
2018-12-14T10:58:51.979Z,15.83
2018-12-14T11:01:31.903Z,17.57
2018-12-14T11:04:06.712Z,17.03
2018-12-14T11:06:41.355Z,18.97
2018-12-14T11:09:16.533Z,18.43
2018-12-14T11:11:51.073Z,17.37
2018-12-14T11:14:26.011Z,16.93
2018-12-14T11:17:00.706Z,17.23
2018-12-14T11:19:35.325Z,17.53
2018-12-14T11:22:09.946Z,17.73
2018-12-14T11:24:44.533Z,18.27
2018-12-14T11:27:19.096Z,18.83
2018-12-14T11:29:53.683Z,18.90
2018-12-14T11:32:28.372Z,18.73
2018-12-14T11:35:03.004Z,18.07
2018-12-14T11:37:37.669Z,17.67
2018-12-14T11:40:12.482Z,19.60
2018-12-14T11:42:47.144Z,18.00
2018-12-14T11:45:21.953Z,17.67
2018-12-14T11:47:56.563Z,18.23
2018-12-14T11:50:31.349Z,20.37
2018-12-14T11:53:06.116Z,19.47
2018-12-14T11:55:40.772Z,17.70
2018-12-14T11:58:15.647Z,18.23
2018-12-14T12:00:52.176Z,18.27
2018-12-14T12:03:26.857Z,18.63
2018-12-14T12:06:01.600Z,19.53
2018-12-14T12:08:36.353Z,18.37
2018-12-14T12:11:10.832Z,19.53
2018-12-14T12:13:45.481Z,19.70
2018-12-14T12:16:20.385Z,20.47
2018-12-14T12:18:55.763Z,17.80
2018-12-14T12:21:30.509Z,20.03
2018-12-14T12:24:05.180Z,20.70
2018-12-14T12:26:40.375Z,19.07
2018-12-14T12:29:15.703Z,18.47
2018-12-14T12:31:50.214Z,19.20
2018-12-14T12:34:24.971Z,19.63
2018-12-14T12:36:59.544Z,17.50
2018-12-14T12:39:34.375Z,17.87
2018-12-14T12:42:09.060Z,19.37
2018-12-14T12:44:43.615Z,18.43
2018-12-14T12:47:18.189Z,18.30
2018-12-14T12:49:52.733Z,18.03
2018-12-14T12:52:27.366Z,17.97
2018-12-14T12:55:02.047Z,18.93
2018-12-14T12:57:36.764Z,22.03
2018-12-14T13:00:11.656Z,19.90
2018-12-14T13:02:46.346Z,18.23
2018-12-14T13:05:21.070Z,17.53
2018-12-14T13:07:55.632Z,19.10
2018-12-14T13:10:30.215Z,18.50
2018-12-14T13:13:04.867Z,28.60
2018-12-14T13:15:39.493Z,37.23
2018-12-14T13:18:14.115Z,26.60
2018-12-14T13:20:48.750Z,17.93
2018-12-14T13:23:23.417Z,19.93
2018-12-14T13:25:58.212Z,17.90
2018-12-14T13:28:33.193Z,16.97
2018-12-14T13:31:07.984Z,16.87
2018-12-14T13:33:42.646Z,17.10
2018-12-14T13:36:17.455Z,17.13
2018-12-14T13:38:52.112Z,17.53
2018-12-14T13:41:26.851Z,18.23
2018-12-14T13:44:01.427Z,17.77
2018-12-14T13:46:36.151Z,20.50
2018-12-14T13:49:10.749Z,25.77
2018-12-14T13:51:45.568Z,24.27
2018-12-14T13:54:20.368Z,22.47
2018-12-14T13:56:55.042Z,19.27
2018-12-14T13:59:29.720Z,18.57
2018-12-14T14:02:04.209Z,18.43
2018-12-14T14:04:38.888Z,17.63
2018-12-14T14:07:13.576Z,17.57
2018-12-14T14:09:48.204Z,17.13
2018-12-14T14:12:22.933Z,17.70
2018-12-14T14:14:57.410Z,17.90
2018-12-14T14:17:32.133Z,17.87
2018-12-14T14:20:07.715Z,17.90
2018-12-14T14:22:43.068Z,18.27
2018-12-14T14:25:17.853Z,17.30
2018-12-14T14:27:52.727Z,16.67
2018-12-14T14:30:27.338Z,16.07
2018-12-14T14:33:01.989Z,16.67
2018-12-14T14:35:36.765Z,16.40
2018-12-14T14:38:11.351Z,16.73
2018-12-14T14:40:45.984Z,16.87
2018-12-14T14:43:20.800Z,17.10
2018-12-14T14:45:55.372Z,17.47
2018-12-14T14:48:30.137Z,16.83
2018-12-14T14:51:05.544Z,18.60
2018-12-14T14:53:40.411Z,17.63
2018-12-14T14:56:14.969Z,17.47
2018-12-14T14:58:49.599Z,19.30
2018-12-14T15:01:24.188Z,18.20
2018-12-14T15:03:58.907Z,18.90
2018-12-14T15:06:33.864Z,20.93
2018-12-14T15:09:09.158Z,21.03
2018-12-14T15:11:43.840Z,18.90
2018-12-14T15:14:18.429Z,18.10
2018-12-14T15:16:52.989Z,18.17
2018-12-14T15:19:27.587Z,18.10
2018-12-14T15:22:04.739Z,17.37
2018-12-14T15:24:39.517Z,20.30
2018-12-14T15:27:14.148Z,18.77
2018-12-14T15:29:48.891Z,23.30
2018-12-14T15:32:23.707Z,21.23
2018-12-14T15:34:59.284Z,20.47
2018-12-14T15:37:34.375Z,17.57
2018-12-14T15:40:09.844Z,19.20
2018-12-14T15:42:44.436Z,18.83
2018-12-14T15:45:18.960Z,19.30
2018-12-14T15:47:53.672Z,17.07
2018-12-14T15:50:28.630Z,17.60
2018-12-14T15:53:03.333Z,17.37
2018-12-14T15:55:37.917Z,17.90
2018-12-14T15:58:12.483Z,14.83
2018-12-14T16:00:47.104Z,16.33
2018-12-14T16:03:21.760Z,17.60
2018-12-14T16:05:56.599Z,15.10
2018-12-14T16:08:31.389Z,15.90
2018-12-14T16:11:06.167Z,17.03
2018-12-14T16:13:40.909Z,17.30
2018-12-14T16:16:15.945Z,18.27
2018-12-14T16:18:50.572Z,18.37
2018-12-14T16:21:25.372Z,19.53
2018-12-14T16:23:59.934Z,17.53
2018-12-14T16:26:34.929Z,17.90
2018-12-14T16:29:09.704Z,18.03
2018-12-14T16:31:44.320Z,19.13
2018-12-14T16:34:19.046Z,17.40
2018-12-14T16:36:54.634Z,19.17
2018-12-14T16:39:29.163Z,21.40
2018-12-14T16:42:04.642Z,25.90
2018-12-14T16:44:39.245Z,17.27
2018-12-14T16:47:13.867Z,16.70
2018-12-14T16:49:48.590Z,16.83
2018-12-14T16:52:23.361Z,16.67
2018-12-14T16:54:57.969Z,16.63
2018-12-14T16:57:32.838Z,17.63
2018-12-14T17:00:08.710Z,17.93
2018-12-14T17:02:43.438Z,17.43
2018-12-14T17:05:18.066Z,20.17
2018-12-14T17:07:52.592Z,16.57
2018-12-14T17:10:27.328Z,15.77
2018-12-14T17:13:01.826Z,17.17
2018-12-14T17:15:36.589Z,17.23
2018-12-14T17:18:11.184Z,18.60
2018-12-14T17:20:45.941Z,20.13
2018-12-14T17:23:20.584Z,19.20
2018-12-14T17:25:55.230Z,19.63
2018-12-14T17:28:29.797Z,18.00
2018-12-14T17:31:04.544Z,16.57
2018-12-14T17:33:39.278Z,17.50
2018-12-14T17:36:13.894Z,16.77
2018-12-14T17:38:48.457Z,16.27
2018-12-14T17:41:23.235Z,16.57
2018-12-14T17:43:57.827Z,16.90
2018-12-14T17:46:32.957Z,15.77
2018-12-14T17:49:07.579Z,17.77
2018-12-14T17:51:42.572Z,19.17
2018-12-14T17:54:17.399Z,19.20
2018-12-14T17:56:52.241Z,18.33
2018-12-14T17:59:26.943Z,16.27
2018-12-14T18:02:01.660Z,17.20
2018-12-14T18:04:36.284Z,17.30
2018-12-14T18:07:10.916Z,18.67
2018-12-14T18:09:45.874Z,18.00
2018-12-14T18:12:20.521Z,19.87
2018-12-14T18:14:55.180Z,19.40
2018-12-14T18:17:29.862Z,18.80
2018-12-14T18:20:06.105Z,20.03
2018-12-14T18:22:40.879Z,19.87
2018-12-14T18:25:16.121Z,18.03
2018-12-14T18:27:50.748Z,17.80
2018-12-14T18:30:26.113Z,17.63
2018-12-14T18:33:00.885Z,17.80
2018-12-14T18:35:35.862Z,16.90
2018-12-14T18:38:11.446Z,18.10
2018-12-14T18:40:45.975Z,16.57
2018-12-14T18:43:20.713Z,16.97
2018-12-14T18:45:55.457Z,17.40
2018-12-14T18:48:30.257Z,18.07
2018-12-14T18:51:05.025Z,18.10
2018-12-14T18:53:41.576Z,17.97
2018-12-14T18:56:16.227Z,18.37
2018-12-14T18:58:50.998Z,17.30
2018-12-14T19:01:25.903Z,18.50
2018-12-14T19:04:00.725Z,17.03
2018-12-14T19:06:35.330Z,20.10
2018-12-14T19:09:10.132Z,17.83
2018-12-14T19:11:45.701Z,18.70
2018-12-14T19:14:20.266Z,18.47
2018-12-14T19:16:54.974Z,20.00
2018-12-14T19:19:29.714Z,19.00
2018-12-14T19:22:04.427Z,18.70
2018-12-14T19:24:38.954Z,17.83
2018-12-14T19:27:13.703Z,20.77
2018-12-14T19:29:48.541Z,20.63
2018-12-14T19:32:23.252Z,19.93
2018-12-14T19:34:58.036Z,18.80
2018-12-14T19:37:32.997Z,20.57
2018-12-14T19:40:09.521Z,19.97
2018-12-14T19:42:44.239Z,17.57
2018-12-14T19:45:18.849Z,18.63
2018-12-14T19:47:53.567Z,20.83
2018-12-14T19:50:28.247Z,20.23
2018-12-14T19:53:02.929Z,19.73
2018-12-14T19:55:37.459Z,19.00
2018-12-14T19:58:12.563Z,17.33
2018-12-14T20:00:47.349Z,19.17
2018-12-14T20:03:21.973Z,19.83
2018-12-14T20:05:56.949Z,18.07
2018-12-14T20:08:32.225Z,17.20
2018-12-14T20:11:07.067Z,21.70
2018-12-14T20:13:41.993Z,22.17
2018-12-14T20:16:16.745Z,19.77
2018-12-14T20:18:51.523Z,17.63
2018-12-14T20:21:26.056Z,17.23
2018-12-14T20:24:00.735Z,20.27
2018-12-14T20:26:35.381Z,17.27
2018-12-14T20:29:10.166Z,18.13
2018-12-14T20:31:44.814Z,16.70
2018-12-14T20:34:19.471Z,15.60
2018-12-14T20:36:54.166Z,15.70
2018-12-14T20:39:28.899Z,15.47
2018-12-14T20:42:03.523Z,16.57
2018-12-14T20:44:38.407Z,17.60
2018-12-14T20:47:13.144Z,18.03
2018-12-14T20:49:47.761Z,19.20
2018-12-14T20:52:23.206Z,18.73
2018-12-14T20:54:57.957Z,18.63
2018-12-14T20:57:32.659Z,25.00
2018-12-14T21:00:08.547Z,17.80
2018-12-14T21:02:43.267Z,16.10
2018-12-14T21:05:18.630Z,15.70
2018-12-14T21:07:53.978Z,16.00
2018-12-14T21:10:29.459Z,17.20
2018-12-14T21:13:04.022Z,16.37
2018-12-14T21:15:41.539Z,16.40
2018-12-14T21:18:16.127Z,16.70
2018-12-14T21:20:50.925Z,16.77
2018-12-14T21:23:25.435Z,17.70
2018-12-14T21:26:00.216Z,16.80
2018-12-14T21:28:34.870Z,18.50
2018-12-14T21:31:09.561Z,16.47
2018-12-14T21:33:44.237Z,17.40
2018-12-14T21:38:59.616Z,16.90
2018-12-14T21:41:34.201Z,17.07
2018-12-14T21:44:08.917Z,17.10
2018-12-14T21:46:43.682Z,16.67
2018-12-14T21:49:18.410Z,17.90
2018-12-14T21:51:53.208Z,16.60
2018-12-14T21:54:27.822Z,16.53
2018-12-14T21:57:02.545Z,15.77
2018-12-14T21:59:37.308Z,17.20
2018-12-14T22:02:11.833Z,15.30
2018-12-14T22:04:46.433Z,15.93
2018-12-14T22:07:21.694Z,17.53
2018-12-14T22:09:56.413Z,15.03
2018-12-14T22:12:31.027Z,15.43
2018-12-14T22:15:06.544Z,15.93
2018-12-14T22:17:41.313Z,15.37
2018-12-14T22:20:15.967Z,15.50
2018-12-14T22:22:50.559Z,16.67
2018-12-14T22:25:25.185Z,16.13
2018-12-14T22:27:59.888Z,14.30
2018-12-14T22:30:34.445Z,13.17
2018-12-14T22:33:09.128Z,14.87
2018-12-14T22:35:43.755Z,13.93
2018-12-14T22:38:18.947Z,13.83
2018-12-14T22:40:53.668Z,15.07
2018-12-14T22:43:28.636Z,13.93
2018-12-14T22:46:03.356Z,15.30
2018-12-14T22:48:38.115Z,14.43
2018-12-14T22:51:12.847Z,14.30
2018-12-14T22:53:48.285Z,15.10
2018-12-14T22:56:22.856Z,16.43
2018-12-14T22:58:57.530Z,15.60
2018-12-14T23:01:32.157Z,17.43
2018-12-14T23:04:07.022Z,19.67
2018-12-14T23:06:41.784Z,29.53
2018-12-14T23:09:16.357Z,14.80
2018-12-14T23:11:51.087Z,14.47
2018-12-14T23:14:25.801Z,13.90
2018-12-14T23:17:00.444Z,14.87
2018-12-14T23:19:34.980Z,15.10
2018-12-14T23:22:09.662Z,16.47
2018-12-14T23:24:44.302Z,14.43
2018-12-14T23:27:19.170Z,14.43
2018-12-14T23:29:53.857Z,15.23
2018-12-14T23:32:28.477Z,14.40
2018-12-14T23:35:03.057Z,14.50
2018-12-14T23:37:37.595Z,15.07
2018-12-14T23:40:12.208Z,15.03
2018-12-14T23:42:46.799Z,15.23
2018-12-14T23:45:21.483Z,15.67
2018-12-14T23:47:56.217Z,14.93
2018-12-14T23:50:30.935Z,15.50
2018-12-14T23:53:06.128Z,14.60
2018-12-14T23:55:42.275Z,14.63
2018-12-14T23:58:17.301Z,15.57
